ENRA/MQN METAR and TAF weather

Enter ICAO airport designator
Station Type Date Time Source
ENRA METAR 2020/07/14 07:20 UTC NOAA

ENRA 140720Z 34005KT 9999 FEW025TCU SCT040 SCT050 13/08 Q1013


Station Type Date Time Source
ENRA Decoded METAR 2020/07/14 07:20 UTC NOAA

Mo I Rana / Rossvoll, Norway (ENRA) 66-22N 014-18E 70M
Jul 14, 2020 - 03:20 AM EDT / 2020.07.14 0720 UTC
Wind: from the NNW (340 degrees) at 6 MPH (5 KT):0
Visibility: greater than 7 mile(s):0
Sky conditions: partly cloudy
Weather: Towering cumulus clouds observed
Temperature: 55 F (13 C)
Dew Point: 46 F (8 C)
Relative Humidity: 71%
Pressure (altimeter): 29.91 in. Hg (1013 hPa)
ob: ENRA 140720Z 34005KT 9999 FEW025TCU SCT040 SCT050 13/08 Q1013
cycle: 7

Station Type Date Time Source
ENRA TAF UTC NOAA

Error!

Example: see airport list